Time;durP1;ratioP1;P1;durP2;ratioP2;P2;SDS_P1;SDS_P2;PMS_P1;PMS_P2;Temp;Humidity;BMP_temperature;BMP_pressure;BME280_temperature;BME280_humidity;BME280_pressure;Samples;Min_cycle;Max_cycle;Signal;HPM_P1;HPM_P2
2022/09/09 00:00:16;;;;;;;3.22;1.20;;;;;;;17.65;65.27;99105.84;345064;28;1204;-69
2022/09/09 00:00:36;;;;;;;3.30;1.23;;;;;;;17.64;65.54;99102.34;342253;28;2313;-69
2022/09/09 00:01:03;;;;;;;3.20;1.20;;;;;;;17.65;65.45;99098.78;342548;28;1800;-68
2022/09/09 00:01:40;;;;;;;3.30;1.00;;;;;;;17.67;65.23;99110.03;342105;28;1020;-68
2022/09/09 00:02:01;;;;;;;3.90;1.30;;;;;;;17.69;65.19;99099.41;342331;28;1085;-67
2022/09/09 00:02:20;;;;;;;3.55;1.45;;;;;;;17.71;65.03;99105.41;342163;28;2394;-68
2022/09/09 00:02:32;;;;;;;3.38;1.13;;;;;;;17.69;65.30;99102.03;342610;28;1019;-67
2022/09/09 00:02:54;;;;;;;4.03;1.10;;;;;;;17.67;65.20;99099.50;342440;28;1186;-68
2022/09/09 00:03:14;;;;;;;2.58;1.13;;;;;;;17.67;65.11;99103.94;343706;28;1879;-67
2022/09/09 00:03:37;;;;;;;3.22;1.27;;;;;;;17.68;64.94;99103.81;342405;28;1114;-68
2022/09/09 00:04:14;;;;;;;3.63;1.30;;;;;;;17.67;65.39;99099.50;341934;28;2450;-68
2022/09/09 00:04:30;;;;;;;3.60;1.30;;;;;;;17.64;65.83;99093.63;343259;28;1701;-68
2022/09/09 00:04:48;;;;;;;2.33;1.20;;;;;;;17.65;65.60;99093.53;342154;28;1026;-68
2022/09/09 00:05:29;;;;;;;3.00;1.23;;;;;;;17.64;65.58;99099.72;343845;28;1722;-68
2022/09/09 00:05:47;;;;;;;2.10;1.30;;;;;;;17.68;65.22;99095.09;343225;28;1602;-68
2022/09/09 00:06:09;;;;;;;2.95;1.20;;;;;;;17.70;65.21;99098.44;342888;28;1562;-68
2022/09/09 00:06:28;;;;;;;3.40;1.20;;;;;;;17.71;65.27;99100.16;342918;28;1774;-67
2022/09/09 00:06:50;;;;;;;4.13;1.40;;;;;;;17.71;65.00;99100.16;343447;28;1902;-69
2022/09/09 00:07:24;;;;;;;2.20;1.30;;;;;;;17.71;64.99;99097.50;342618;28;1199;-68
2022/09/09 00:07:51;;;;;;;3.90;1.02;;;;;;;17.71;64.96;99094.88;342657;28;1224;-67
2022/09/09 00:08:06;;;;;;;2.67;1.10;;;;;;;17.69;64.77;99099.41;342921;28;1816;-67
2022/09/09 00:08:22;;;;;;;3.13;1.00;;;;;;;17.70;64.50;99095.81;343353;28;1331;-67
2022/09/09 00:08:49;;;;;;;3.15;1.10;;;;;;;17.71;64.41;99100.16;344056;28;1637;-68
2022/09/09 00:09:01;;;;;;;2.95;1.20;;;;;;;17.73;64.52;99099.06;342325;28;1541;-68
2022/09/09 00:09:15;;;;;;;2.75;1.10;;;;;;;17.75;64.49;99091.09;343496;28;1829;-69
2022/09/09 00:09:31;;;;;;;1.95;1.15;;;;;;;17.72;64.19;99096.56;342430;28;1758;-68
2022/09/09 00:09:50;;;;;;;2.42;1.20;;;;;;;17.72;64.14;99101.81;342720;28;1014;-69
2022/09/09 00:10:20;;;;;;;4.88;1.27;;;;;;;17.71;64.62;99100.16;342765;28;1662;-68
2022/09/09 00:10:39;;;;;;;2.78;1.23;;;;;;;17.72;64.70;99096.56;345387;28;848;-68
2022/09/09 00:11:04;;;;;;;2.83;1.23;;;;;;;17.64;65.02;99094.47;344012;28;1996;-67
2022/09/09 00:11:23;;;;;;;2.08;1.13;;;;;;;17.58;64.55;99100.16;342363;28;1321;-68
2022/09/09 00:11:56;;;;;;;2.30;1.15;;;;;;;17.63;64.75;99097.22;343759;28;1675;-67
2022/09/09 00:12:15;;;;;;;1.73;1.00;;;;;;;17.55;65.11;99095.97;343465;28;1985;-68
2022/09/09 00:12:39;;;;;;;3.00;1.23;;;;;;;17.56;65.05;99092.38;343601;28;1071;-68
2022/09/09 00:13:19;;;;;;;4.53;1.35;;;;;;;17.58;64.93;99089.63;342584;28;1763;-68
2022/09/09 00:13:37;;;;;;;2.53;1.00;;;;;;;17.61;64.97;99089.44;343389;28;1717;-70
2022/09/09 00:13:54;;;;;;;2.15;1.00;;;;;;;17.66;64.96;99103.06;345467;28;1942;-69
2022/09/09 00:14:20;;;;;;;2.53;0.98;;;;;;;17.69;65.25;99087.09;344735;28;1933;-68
2022/09/09 00:14:37;;;;;;;2.97;1.00;;;;;;;17.73;64.93;99093.00;343591;28;1578;-68
2022/09/09 00:15:02;;;;;;;2.47;0.98;;;;;;;17.75;64.82;99097.19;344498;28;1904;-68
2022/09/09 00:15:42;;;;;;;2.70;1.10;;;;;;;17.62;65.01;99095.53;344259;28;1191;-68
2022/09/09 00:16:03;;;;;;;2.78;1.10;;;;;;;17.60;64.80;99097.41;342349;28;2204;-68
2022/09/09 00:16:27;;;;;;;2.78;1.10;;;;;;;17.60;64.93;99098.25;343889;28;2274;-68
2022/09/09 00:16:47;;;;;;;2.25;1.00;;;;;;;17.62;64.78;99092.91;343078;28;2190;-68
2022/09/09 00:17:07;;;;;;;1.48;1.00;;;;;;;17.61;64.77;99099.13;343716;28;2118;-69
2022/09/09 00:18:02;;;;;;;1.38;0.98;;;;;;;17.40;65.81;99090.94;343565;28;1599;-68
2022/09/09 00:18:51;;;;;;;2.53;1.10;;;;;;;17.45;65.77;99088.84;336165;29;1972;-68
2022/09/09 00:19:31;;;;;;;3.95;1.10;;;;;;;17.45;65.97;99089.66;339088;29;2431;-68
2022/09/09 00:19:56;;;;;;;4.50;1.33;;;;;;;17.48;65.89;99093.88;342819;28;1090;-67
2022/09/09 00:20:32;;;;;;;4.25;1.20;;;;;;;17.52;65.48;99093.53;343643;28;1496;-69
2022/09/09 00:20:57;;;;;;;3.42;1.02;;;;;;;17.57;65.39;99093.22;341982;28;1938;-68
2022/09/09 00:21:17;;;;;;;3.40;1.08;;;;;;;17.56;65.60;99092.38;342814;28;1047;-68
2022/09/09 00:21:36;;;;;;;3.40;1.10;;;;;;;17.55;65.46;99090.69;342713;28;1079;-67
2022/09/09 00:21:57;;;;;;;3.45;1.10;;;;;;;17.58;65.22;99095.72;344121;28;1598;-69
2022/09/09 00:22:17;;;;;;;1.75;1.10;;;;;;;17.58;65.21;99100.97;342838;28;1776;-68
2022/09/09 00:22:33;;;;;;;1.98;1.10;;;;;;;17.60;65.29;99095.63;342448;28;1038;-68
2022/09/09 00:22:59;;;;;;;2.47;1.00;;;;;;;17.63;65.20;99097.22;342437;28;1046;-69
2022/09/09 00:23:39;;;;;;;2.38;1.00;;;;;;;17.65;65.22;99097.94;344215;28;1998;-67
2022/09/09 00:23:54;;;;;;;3.08;1.10;;;;;;;17.70;65.39;99098.44;341855;28;1796;-68
2022/09/09 00:24:29;;;;;;;2.50;1.00;;;;;;;17.75;64.88;99102.44;343807;28;1555;-67
2022/09/09 00:24:43;;;;;;;3.75;1.15;;;;;;;17.77;64.96;99099.72;342345;28;1310;-67
2022/09/09 00:25:23;;;;;;;2.80;0.98;;;;;;;17.78;65.07;99094.31;342841;28;2039;-68
2022/09/09 00:25:53;;;;;;;2.83;0.95;;;;;;;17.76;64.30;99095.38;343057;28;2361;-68
2022/09/09 00:26:35;;;;;;;2.63;1.20;;;;;;;17.72;64.38;99096.56;343238;28;1781;-68
2022/09/09 00:26:53;;;;;;;3.90;1.00;;;;;;;17.69;64.61;99096.78;343771;28;1961;-68
2022/09/09 00:27:12;;;;;;;3.08;0.90;;;;;;;17.66;64.81;99094.34;345352;28;1097;-67
2022/09/09 00:27:35;;;;;;;2.00;1.02;;;;;;;17.56;65.24;99092.38;344449;28;1328;-67
2022/09/09 00:27:49;;;;;;;3.63;0.90;;;;;;;17.53;65.10;99099.66;345337;28;1059;-67
2022/09/09 00:28:01;;;;;;;1.70;1.00;;;;;;;17.53;65.21;99100.47;343280;28;1862;-68
2022/09/09 00:28:18;;;;;;;2.00;1.00;;;;;;;17.53;65.05;99097.84;342371;28;1195;-67
2022/09/09 00:28:35;;;;;;;3.08;0.90;;;;;;;17.53;64.91;99103.09;342272;28;2065;-67
2022/09/09 00:28:56;;;;;;;3.60;0.90;;;;;;;17.51;65.06;99099.75;342546;28;1094;-68
2022/09/09 00:29:30;;;;;;;2.30;0.95;;;;;;;17.41;65.52;99103.97;342908;28;1043;-67
2022/09/09 00:29:53;;;;;;;2.38;1.20;;;;;;;17.33;65.93;99106.28;342091;28;2092;-69
2022/09/09 00:30:41;;;;;;;2.63;1.15;;;;;;;17.29;66.43;99103.03;342633;28;1092;-68
2022/09/09 00:30:54;;;;;;;3.08;1.10;;;;;;;17.25;66.62;99095.47;342361;28;1101;-69
2022/09/09 00:31:16;;;;;;;2.95;1.10;;;;;;;17.23;66.80;99100.00;342744;28;2349;-68
2022/09/09 00:31:30;;;;;;;2.65;1.08;;;;;;;17.17;66.72;99102.09;343579;28;1050;-68
2022/09/09 00:31:42;;;;;;;2.75;1.10;;;;;;;17.16;66.88;99099.56;343279;28;1087;-68
2022/09/09 00:32:04;;;;;;;3.22;1.00;;;;;;;17.14;66.83;99091.81;343479;28;1068;-68
2022/09/09 00:32:18;;;;;;;3.78;1.05;;;;;;;17.15;66.80;99098.72;342953;28;1900;-68
2022/09/09 00:32:35;;;;;;;3.67;1.20;;;;;;;17.14;66.97;99094.44;344190;28;1822;-67
2022/09/09 00:32:49;;;;;;;3.67;1.25;;;;;;;17.11;67.03;99094.63;345010;28;1902;-68
2022/09/09 00:33:15;;;;;;;2.58;1.10;;;;;;;17.11;67.01;99102.50;344864;28;1696;-69
2022/09/09 00:33:27;;;;;;;2.00;1.00;;;;;;;17.12;66.91;99104.19;342467;28;1047;-68
2022/09/09 00:33:40;;;;;;;2.22;1.00;;;;;;;17.14;67.01;99097.06;342736;28;1057;-68
2022/09/09 00:33:54;;;;;;;2.35;1.00;;;;;;;17.14;66.86;99097.06;342790;28;784;-67
2022/09/09 00:34:17;;;;;;;2.10;0.90;;;;;;;17.17;66.86;99096.00;342508;28;1183;-68
2022/09/09 00:34:29;;;;;;;2.92;0.90;;;;;;;17.17;66.96;99090.75;343668;28;1333;-68
2022/09/09 00:34:50;;;;;;;3.08;1.00;;;;;;;17.19;67.17;99101.16;344945;28;1729;-68
2022/09/09 00:35:15;;;;;;;1.77;0.90;;;;;;;17.21;66.88;99096.63;343610;28;2332;-68
2022/09/09 00:35:32;;;;;;;1.92;0.90;;;;;;;17.21;66.98;99092.22;343271;28;2014;-68
2022/09/09 00:35:48;;;;;;;3.55;1.10;;;;;;;17.21;67.10;99094.84;343724;28;1070;-68
2022/09/09 00:36:02;;;;;;;3.08;1.15;;;;;;;17.21;67.05;99096.63;342687;28;2157;-67
2022/09/09 00:36:22;;;;;;;2.03;1.10;;;;;;;17.23;66.96;99100.00;342880;28;1196;-68
2022/09/09 00:36:37;;;;;;;2.55;1.20;;;;;;;17.22;67.16;99093.03;343069;28;1677;-68
2022/09/09 00:36:52;;;;;;;2.40;1.30;;;;;;;17.24;66.92;99091.97;342629;28;1107;-68
2022/09/09 00:37:05;;;;;;;2.00;1.20;;;;;;;17.25;66.96;99098.09;342173;28;1050;-68
2022/09/09 00:37:20;;;;;;;2.30;1.13;;;;;;;17.27;67.11;99091.78;342648;28;1911;-67
2022/09/09 00:37:34;;;;;;;2.25;1.10;;;;;;;17.28;67.48;99092.63;345301;28;1030;-68
2022/09/09 00:37:49;;;;;;;2.55;1.15;;;;;;;17.27;67.52;99093.59;345285;28;1226;-68
2022/09/09 00:38:12;;;;;;;2.35;1.10;;;;;;;17.27;67.13;99096.22;345268;28;1316;-67
2022/09/09 00:38:31;;;;;;;2.20;1.10;;;;;;;17.27;67.14;99096.22;343856;28;1765;-68
2022/09/09 00:38:55;;;;;;;2.60;1.10;;;;;;;17.30;67.38;99101.22;344756;28;2053;-68
2022/09/09 00:39:31;;;;;;;3.28;1.30;;;;;;;17.35;67.15;99099.97;343468;28;1489;-68
2022/09/09 00:39:47;;;;;;;1.92;1.00;;;;;;;17.41;67.01;99095.25;342480;28;1161;-68
2022/09/09 00:40:05;;;;;;;2.00;1.00;;;;;;;17.43;66.87;99096.81;342748;28;1209;-68
2022/09/09 00:40:35;;;;;;;3.55;1.70;;;;;;;17.44;66.46;99098.47;342603;28;1267;-68
2022/09/09 00:41:01;;;;;;;3.72;1.10;;;;;;;17.39;66.38;99095.34;342870;28;1615;-69
2022/09/09 00:41:34;;;;;;;3.63;1.00;;;;;;;17.39;66.42;99105.03;344893;28;1053;-69
2022/09/09 00:42:02;;;;;;;2.90;0.90;;;;;;;17.40;66.29;99102.28;344878;28;1903;-67
2022/09/09 00:42:19;;;;;;;2.10;1.10;;;;;;;17.39;66.23;99099.78;343411;28;1561;-68
2022/09/09 00:42:42;;;;;;;2.05;1.15;;;;;;;17.38;66.13;99104.16;343304;28;1915;-67
2022/09/09 00:43:26;;;;;;;2.50;1.05;;;;;;;17.38;66.52;99098.91;345187;28;1318;-67
2022/09/09 00:43:40;;;;;;;1.80;1.10;;;;;;;17.39;66.57;99100.59;342131;28;1113;-67
2022/09/09 00:44:00;;;;;;;2.30;1.10;;;;;;;17.41;66.40;99098.72;343888;28;1629;-67
2022/09/09 00:44:27;;;;;;;2.63;1.10;;;;;;;17.45;66.45;99100.19;345221;28;1188;-68
2022/09/09 00:44:52;;;;;;;3.65;0.90;;;;;;;17.46;66.98;99101.84;343713;28;1954;-68
2022/09/09 00:45:23;;;;;;;2.72;1.10;;;;;;;17.41;67.12;99098.72;342250;28;1148;-68
2022/09/09 00:46:00;;;;;;;1.45;1.00;;;;;;;17.40;67.43;99094.38;342359;28;1005;-68
2022/09/09 00:46:35;;;;;;;2.45;1.20;;;;;;;17.43;67.32;99096.00;343668;28;1545;-67
2022/09/09 00:46:50;;;;;;;2.20;1.10;;;;;;;17.43;67.20;99099.44;342188;28;1232;-68
2022/09/09 00:47:38;;;;;;;1.58;0.93;;;;;;;17.49;66.87;99093.75;343453;28;1091;-67
2022/09/09 00:47:52;;;;;;;2.67;1.05;;;;;;;17.51;67.28;99094.50;343052;28;2170;-68
2022/09/09 00:48:11;;;;;;;5.10;1.10;;;;;;;17.53;67.09;99094.41;343280;28;2139;-68
2022/09/09 00:48:43;;;;;;;5.85;1.27;;;;;;;17.54;67.46;99089.00;343208;28;2165;-67
2022/09/09 00:49:09;;;;;;;2.28;1.02;;;;;;;17.61;68.15;99094.69;343912;28;1019;-67
2022/09/09 00:49:32;;;;;;;3.65;1.10;;;;;;;17.61;67.81;99093.84;345368;28;1261;-67
2022/09/09 00:50:24;;;;;;;2.60;1.17;;;;;;;17.57;67.90;99094.06;343883;28;1843;-68
2022/09/09 00:51:00;;;;;;;1.40;0.90;;;;;;;17.48;67.88;99094.69;342379;28;1782;-68
2022/09/09 00:51:30;;;;;;;3.08;1.10;;;;;;;17.32;68.74;99104.59;342452;28;1063;-68
2022/09/09 00:52:23;;;;;;;5.38;1.23;;;;;;;17.30;68.65;99101.22;342401;28;1111;-68
2022/09/09 00:52:57;;;;;;;2.13;1.13;;;;;;;17.33;68.31;99095.78;344622;28;1092;-68
2022/09/09 00:53:27;;;;;;;1.85;1.00;;;;;;;17.37;68.04;99102.50;342980;28;1270;-68
2022/09/09 00:54:06;;;;;;;3.08;1.00;;;;;;;17.40;68.34;99096.19;344580;28;1910;-67
2022/09/09 00:54:40;;;;;;;3.28;1.10;;;;;;;17.41;68.31;99095.25;344969;28;1284;-67
2022/09/09 00:55:02;;;;;;;2.75;1.00;;;;;;;17.47;69.00;99103.53;343117;28;1632;-67
2022/09/09 00:55:29;;;;;;;1.00;0.90;;;;;;;17.49;68.75;99101.66;342451;28;1078;-67
2022/09/09 00:55:40;;;;;;;2.50;0.90;;;;;;;17.50;68.64;99099.84;342368;28;1111;-67
2022/09/09 00:56:21;;;;;;;2.63;1.00;;;;;;;17.47;68.93;99098.28;342316;28;1256;-68
2022/09/09 00:56:43;;;;;;;2.00;1.00;;;;;;;17.27;69.57;99096.22;346119;28;2175;-69
2022/09/09 00:57:05;;;;;;;2.05;1.00;;;;;;;17.27;69.54;99106.72;344665;28;1900;-67
2022/09/09 00:57:32;;;;;;;3.20;1.00;;;;;;;17.32;69.42;99099.34;343646;28;1331;-68
2022/09/09 00:57:45;;;;;;;2.88;1.00;;;;;;;17.36;69.26;99100.81;346121;28;1217;-68
2022/09/09 00:57:57;;;;;;;2.38;1.10;;;;;;;17.37;68.99;99098.09;344846;28;1086;-68
2022/09/09 00:58:09;;;;;;;3.10;1.17;;;;;;;17.38;69.00;99104.16;344846;28;1162;-68
2022/09/09 00:58:21;;;;;;;2.75;1.10;;;;;;;17.41;68.96;99097.88;344966;28;1934;-68
2022/09/09 00:58:33;;;;;;;2.92;1.05;;;;;;;17.40;68.98;99102.28;344097;28;1871;-68
2022/09/09 00:59:02;;;;;;;2.58;0.90;;;;;;;17.42;68.77;99103.00;343931;28;948;-68
2022/09/09 00:59:57;;;;;;;2.45;1.10;;;;;;;17.43;68.84;99104.72;343547;28;1266;-67
2022/09/09 01:00:14;;;;;;;3.30;1.20;;;;;;;17.45;69.04;99105.44;342141;28;3486;-67
2022/09/09 01:00:29;;;;;;;3.00;1.20;;;;;;;17.45;69.03;99105.44;342419;28;1119;-67
2022/09/09 01:00:51;;;;;;;2.45;1.30;;;;;;;17.47;69.07;99106.16;342170;28;1661;-68
2022/09/09 01:01:08;;;;;;;2.47;1.15;;;;;;;17.46;69.17;99109.72;344148;28;1253;-67
2022/09/09 01:01:20;;;;;;;2.33;0.90;;;;;;;17.47;69.22;99105.34;345067;28;1273;-68
2022/09/09 01:01:32;;;;;;;4.07;1.00;;;;;;;17.47;69.17;99108.78;344392;28;1638;-68
2022/09/09 01:01:44;;;;;;;4.60;1.08;;;;;;;17.48;69.11;99107.84;343053;28;1661;-67
2022/09/09 01:01:58;;;;;;;4.00;1.50;;;;;;;17.50;69.05;99100.69;342507;28;1168;-67
2022/09/09 01:02:22;;;;;;;3.80;1.50;;;;;;;17.53;68.71;99103.09;342974;28;1065;-68
2022/09/09 01:03:02;;;;;;;2.90;1.25;;;;;;;17.53;68.64;99105.75;342246;28;1201;-68
2022/09/09 01:03:44;;;;;;;3.58;1.10;;;;;;;17.54;68.52;99107.41;343187;28;1838;-68
2022/09/09 01:03:59;;;;;;;3.40;1.00;;;;;;;17.52;68.46;99105.84;341993;28;1108;-69
2022/09/09 01:04:21;;;;;;;1.98;1.00;;;;;;;17.52;68.53;99106.66;344127;28;1575;-68
2022/09/09 01:04:36;;;;;;;2.42;1.10;;;;;;;17.51;68.35;99105.00;341877;28;1034;-68
2022/09/09 01:04:48;;;;;;;2.70;1.20;;;;;;;17.53;68.18;99103.09;342073;28;1252;-68
2022/09/09 01:05:30;;;;;;;3.13;1.30;;;;;;;17.54;68.38;99099.53;342091;28;1237;-67
2022/09/09 01:05:52;;;;;;;2.40;1.10;;;;;;;17.54;68.27;99104.78;342218;28;1079;-68
2022/09/09 01:06:31;;;;;;;2.70;1.02;;;;;;;17.52;68.07;99098.78;342829;28;2263;-68
2022/09/09 01:06:51;;;;;;;2.65;1.00;;;;;;;17.55;68.04;99103.84;343673;28;2140;-67
2022/09/09 01:07:15;;;;;;;3.05;1.10;;;;;;;17.55;67.98;99106.47;342334;28;1042;-68
2022/09/09 01:07:27;;;;;;;3.28;1.10;;;;;;;17.55;68.38;99106.47;344034;28;1658;-68
2022/09/09 01:07:47;;;;;;;2.80;1.08;;;;;;;17.58;68.07;99105.41;342641;28;829;-67
2022/09/09 01:08:08;;;;;;;3.00;1.20;;;;;;;17.60;68.26;99103.50;342230;28;1233;-68
2022/09/09 01:08:44;;;;;;;2.83;1.15;;;;;;;17.60;68.35;99103.50;343600;28;1642;-68
2022/09/09 01:09:02;;;;;;;3.58;1.00;;;;;;;17.63;68.08;99098.06;343241;28;1305;-68
2022/09/09 01:09:15;;;;;;;4.53;1.17;;;;;;;17.65;68.23;99105.84;343283;28;1091;-69
2022/09/09 01:09:34;;;;;;;2.67;1.10;;;;;;;17.67;68.09;99101.31;342998;28;1707;-67
2022/09/09 01:09:59;;;;;;;1.40;0.90;;;;;;;17.64;68.74;99109.41;344288;28;1018;-69
2022/09/09 01:10:24;;;;;;;3.08;1.00;;;;;;;17.69;68.70;99107.28;342317;28;1210;-68
2022/09/09 01:10:57;;;;;;;2.08;1.10;;;;;;;17.68;68.49;99108.22;342321;28;1215;-67
2022/09/09 01:11:21;;;;;;;3.60;1.30;;;;;;;17.66;68.64;99107.50;342309;28;1112;-68
2022/09/09 01:11:52;;;;;;;3.58;1.10;;;;;;;17.65;68.61;99100.59;342091;28;2144;-68
2022/09/09 01:12:13;;;;;;;1.67;1.00;;;;;;;17.68;68.64;99110.84;342432;28;1336;-68
2022/09/09 01:12:34;;;;;;;2.22;1.00;;;;;;;17.67;68.63;99089.00;343442;28;1302;-68
2022/09/09 01:12:47;;;;;;;2.10;1.10;;;;;;;17.71;68.77;99100.16;343567;28;1179;-69
2022/09/09 01:13:02;;;;;;;2.63;1.27;;;;;;;17.72;68.79;99092.13;343554;28;1008;-68
2022/09/09 01:13:41;;;;;;;3.00;1.20;;;;;;;17.75;68.81;99105.06;342887;28;1841;-68
2022/09/09 01:14:02;;;;;;;2.35;1.10;;;;;;;17.73;68.67;99103.50;341930;28;1200;-68
2022/09/09 01:14:36;;;;;;;2.65;1.30;;;;;;;17.75;68.89;99106.88;342288;28;1591;-69
2022/09/09 01:14:54;;;;;;;2.78;1.10;;;;;;;17.76;68.90;99098.00;343240;28;1907;-69
2022/09/09 01:15:28;;;;;;;2.58;1.10;;;;;;;17.69;68.42;99102.03;343529;28;1827;-68
2022/09/09 01:15:44;;;;;;;3.42;1.20;;;;;;;17.68;68.42;99100.34;343291;28;1629;-68
2022/09/09 01:15:59;;;;;;;2.95;1.00;;;;;;;17.66;68.28;99102.25;344230;28;1725;-68
2022/09/09 01:16:14;;;;;;;2.72;1.00;;;;;;;17.71;68.43;99105.41;343771;28;1429;-68
2022/09/09 01:16:29;;;;;;;2.35;1.10;;;;;;;17.71;68.27;99100.97;343547;28;1364;-68
2022/09/09 01:16:42;;;;;;;3.00;1.02;;;;;;;17.72;68.22;99109.69;343408;28;1072;-67
2022/09/09 01:16:59;;;;;;;4.03;1.00;;;;;;;17.68;68.45;99105.59;341757;28;1983;-68
2022/09/09 01:17:23;;;;;;;3.25;1.13;;;;;;;17.61;68.85;99105.22;342045;28;1071;-68
2022/09/09 01:17:46;;;;;;;3.58;1.10;;;;;;;17.53;69.11;99102.28;340738;29;1107;-69
2022/09/09 01:18:06;;;;;;;1.85;0.90;;;;;;;17.52;68.98;99101.41;343525;28;1747;-68
2022/09/09 01:18:21;;;;;;;1.63;1.02;;;;;;;17.54;69.07;99096.06;343351;28;1237;-69
2022/09/09 01:18:40;;;;;;;2.22;1.10;;;;;;;17.56;69.10;99102.03;343379;28;1166;-68
2022/09/09 01:18:58;;;;;;;2.55;1.10;;;;;;;17.55;69.03;99101.22;343647;28;2141;-68
2022/09/09 01:19:24;;;;;;;2.65;1.10;;;;;;;17.56;68.82;99097.63;342111;28;1035;-68
2022/09/09 01:19:42;;;;;;;2.75;1.20;;;;;;;17.59;69.25;99101.84;344022;28;1340;-68
2022/09/09 01:20:19;;;;;;;1.58;1.00;;;;;;;17.60;68.94;99102.69;343473;28;1284;-69
2022/09/09 01:20:44;;;;;;;2.38;0.90;;;;;;;17.63;69.13;99102.47;344627;28;1074;-68
2022/09/09 01:21:33;;;;;;;4.20;1.00;;;;;;;17.68;68.96;99101.19;342450;28;1069;-69
2022/09/09 01:21:55;;;;;;;1.85;1.10;;;;;;;17.67;69.17;99101.31;342355;28;1118;-68
2022/09/09 01:22:40;;;;;;;3.33;1.10;;;;;;;17.65;68.86;99101.41;342180;28;2137;-68
2022/09/09 01:23:00;;;;;;;3.00;1.10;;;;;;;17.65;68.93;99101.41;342574;28;2986;-68
2022/09/09 01:23:38;;;;;;;3.25;0.93;;;;;;;17.69;68.81;99108.13;343708;28;1066;-68
2022/09/09 01:24:31;;;;;;;3.00;1.00;;;;;;;17.73;68.70;99103.50;343577;28;1100;-68
2022/09/09 01:25:20;;;;;;;3.15;0.95;;;;;;;17.78;68.72;99104.84;343294;28;1295;-69
2022/09/09 01:26:10;;;;;;;4.28;1.23;;;;;;;17.84;68.57;99106.22;344715;28;2039;-69
2022/09/09 01:26:35;;;;;;;2.92;1.10;;;;;;;17.88;68.27;99110.31;342752;28;1326;-67
2022/09/09 01:26:52;;;;;;;3.60;1.02;;;;;;;17.86;68.11;99104.31;342227;28;2256;-69
2022/09/09 01:27:06;;;;;;;1.67;1.08;;;;;;;17.88;68.22;99104.22;342448;28;1065;-67
2022/09/09 01:27:23;;;;;;;2.47;1.17;;;;;;;17.87;68.38;99106.00;343356;28;1298;-68
2022/09/09 01:27:36;;;;;;;3.13;1.20;;;;;;;17.87;68.55;99106.00;345185;28;1189;-68
2022/09/09 01:27:51;;;;;;;2.92;1.13;;;;;;;17.87;68.50;99111.28;343210;28;1609;-69
2022/09/09 01:28:07;;;;;;;2.80;1.08;;;;;;;17.88;68.69;99110.31;344472;28;1791;-69
2022/09/09 01:28:25;;;;;;;3.20;1.20;;;;;;;17.85;68.62;99107.91;345044;28;1322;-68
2022/09/09 01:28:38;;;;;;;2.53;1.08;;;;;;;17.87;68.60;99115.69;344955;28;1066;-67
2022/09/09 01:28:54;;;;;;;1.95;1.10;;;;;;;17.87;68.73;99115.69;345135;28;1070;-69
2022/09/09 01:29:09;;;;;;;2.60;1.27;;;;;;;17.87;68.50;99111.28;344860;28;1090;-69
2022/09/09 01:29:23;;;;;;;2.53;1.20;;;;;;;17.88;68.55;99112.09;343783;28;2040;-68
2022/09/09 01:29:35;;;;;;;3.53;1.25;;;;;;;17.88;68.69;99107.69;342017;28;1325;-68
2022/09/09 01:29:47;;;;;;;2.97;1.20;;;;;;;17.88;68.75;99110.31;342170;28;1169;-67
2022/09/09 01:30:00;;;;;;;2.35;1.15;;;;;;;17.90;68.47;99111.03;341809;28;1050;-68
2022/09/09 01:30:15;;;;;;;2.08;1.20;;;;;;;17.91;68.52;99111.91;342217;28;1071;-68
2022/09/09 01:30:28;;;;;;;2.67;1.30;;;;;;;17.93;68.32;99115.25;342039;28;1114;-68
2022/09/09 01:30:41;;;;;;;3.60;1.38;;;;;;;17.91;68.37;99107.47;341699;28;1047;-68
2022/09/09 01:30:56;;;;;;;3.55;1.30;;;;;;;17.91;68.22;99112.72;342350;28;2356;-68
2022/09/09 01:31:14;;;;;;;2.67;1.30;;;;;;;17.90;68.08;99113.66;343780;28;801;-69
2022/09/09 01:31:31;;;;;;;3.25;1.30;;;;;;;17.90;67.82;99116.28;342218;28;1702;-69
2022/09/09 01:31:57;;;;;;;2.50;1.10;;;;;;;17.91;67.87;99107.47;343132;28;1576;-68
2022/09/09 01:32:36;;;;;;;2.42;1.20;;;;;;;17.94;68.04;99109.88;343091;28;1629;-69
2022/09/09 01:32:55;;;;;;;1.58;1.17;;;;;;;17.94;67.83;99109.03;342963;28;1276;-68
2022/09/09 01:33:14;;;;;;;3.10;1.42;;;;;;;17.93;67.91;99116.09;343199;28;1282;-68
2022/09/09 01:33:26;;;;;;;5.03;1.60;;;;;;;17.90;67.99;99111.03;342227;28;1734;-69
2022/09/09 01:33:38;;;;;;;4.53;1.23;;;;;;;17.90;67.98;99121.56;342821;28;1081;-69
2022/09/09 01:33:50;;;;;;;4.00;1.30;;;;;;;17.88;67.77;99118.19;344716;28;1019;-69
2022/09/09 01:34:17;;;;;;;4.03;1.42;;;;;;;17.87;67.74;99108.66;344653;28;1331;-68
2022/09/09 01:34:34;;;;;;;1.95;1.23;;;;;;;17.81;68.19;99111.69;341836;28;1944;-67
2022/09/09 01:34:46;;;;;;;1.80;1.17;;;;;;;17.81;68.19;99111.69;343421;28;1898;-68
2022/09/09 01:34:58;;;;;;;1.67;1.10;;;;;;;17.81;67.89;99111.69;342984;28;1603;-68
2022/09/09 01:35:19;;;;;;;2.45;1.30;;;;;;;17.82;67.83;99110.72;343644;28;1725;-68
2022/09/09 01:35:43;;;;;;;2.95;1.20;;;;;;;17.85;67.85;99117.56;342003;28;1304;-68
2022/09/09 01:36:03;;;;;;;2.25;1.10;;;;;;;17.87;67.81;99111.28;342024;28;1175;-67
2022/09/09 01:36:21;;;;;;;1.98;1.08;;;;;;;17.89;67.90;99103.28;343657;28;1349;-69
2022/09/09 01:36:46;;;;;;;3.30;1.10;;;;;;;17.89;67.95;99100.66;342945;28;1360;-67
2022/09/09 01:37:04;;;;;;;2.90;0.98;;;;;;;17.92;67.77;99114.41;343760;28;837;-68
2022/09/09 01:37:16;;;;;;;3.22;1.00;;;;;;;17.93;67.71;99105.56;343333;28;1289;-69
2022/09/09 01:37:28;;;;;;;3.58;1.20;;;;;;;17.94;68.09;99104.59;344639;28;1058;-68
2022/09/09 01:37:40;;;;;;;3.92;1.20;;;;;;;17.95;67.77;99110.72;343748;28;1301;-68
2022/09/09 01:37:52;;;;;;;2.55;1.10;;;;;;;17.98;67.90;99114.91;343433;28;1302;-68
2022/09/09 01:38:05;;;;;;;4.28;1.20;;;;;;;17.96;67.74;99110.59;343464;28;1103;-69
2022/09/09 01:38:18;;;;;;;4.15;1.17;;;;;;;17.97;67.69;99111.47;343366;28;1054;-68
2022/09/09 01:38:32;;;;;;;3.90;1.20;;;;;;;17.99;67.59;99106.06;343446;28;1233;-68
2022/09/09 01:38:44;;;;;;;3.53;1.30;;;;;;;17.99;67.52;99103.44;344597;28;1733;-67
2022/09/09 01:38:56;;;;;;;3.08;1.30;;;;;;;17.98;67.69;99112.28;344812;28;1106;-68
2022/09/09 01:39:11;;;;;;;3.03;1.13;;;;;;;17.96;67.85;99115.84;344728;28;1053;-68
2022/09/09 01:39:24;;;;;;;3.42;1.10;;;;;;;17.96;67.88;99110.59;343254;28;1348;-68
2022/09/09 01:39:38;;;;;;;3.90;1.10;;;;;;;17.93;67.85;99116.09;343090;28;964;-68
2022/09/09 01:39:50;;;;;;;3.08;1.10;;;;;;;17.93;68.23;99110.84;341149;28;5128;-68
2022/09/09 01:40:02;;;;;;;3.10;1.20;;;;;;;17.95;68.12;99119.44;343381;28;3403;-68
2022/09/09 01:40:15;;;;;;;2.58;1.10;;;;;;;17.93;68.42;99121.34;343685;28;1239;-68
2022/09/09 01:40:27;;;;;;;2.40;1.00;;;;;;;17.93;68.38;99116.09;342178;28;2638;-69
2022/09/09 01:40:39;;;;;;;2.40;1.10;;;;;;;17.93;68.32;99116.09;342737;28;1246;-68
2022/09/09 01:40:52;;;;;;;3.25;1.27;;;;;;;17.94;68.06;99117.75;342208;28;1458;-68
2022/09/09 01:41:04;;;;;;;3.80;1.42;;;;;;;17.93;68.31;99112.63;339710;28;1541;-67
2022/09/09 01:41:17;;;;;;;4.63;1.42;;;;;;;17.93;68.22;99113.47;343031;28;1341;-68
2022/09/09 01:41:29;;;;;;;3.38;1.40;;;;;;;17.95;68.12;99113.34;342401;28;1288;-68
2022/09/09 01:41:41;;;;;;;3.00;1.30;;;;;;;17.94;67.67;99114.28;343976;28;745;-68
2022/09/09 01:41:54;;;;;;;2.85;1.20;;;;;;;17.93;67.70;99113.47;342134;28;2903;-68
2022/09/09 01:42:09;;;;;;;2.13;1.20;;;;;;;17.93;67.58;99120.53;343784;28;1930;-68
2022/09/09 01:42:21;;;;;;;2.17;1.20;;;;;;;17.93;67.71;99121.34;343442;28;1419;-68
2022/09/09 01:42:33;;;;;;;2.00;1.10;;;;;;;17.92;67.38;99114.41;344908;28;1051;-68
2022/09/09 01:42:45;;;;;;;2.00;1.15;;;;;;;17.90;67.07;99118.94;345765;28;1092;-68
2022/09/09 01:42:57;;;;;;;1.75;1.15;;;;;;;17.89;67.14;99119.88;345964;28;1200;-68
2022/09/09 01:43:10;;;;;;;3.00;1.40;;;;;;;17.89;67.21;99119.88;346792;28;1255;-69
2022/09/09 01:43:23;;;;;;;3.47;1.35;;;;;;;17.90;67.22;99115.47;346534;28;1345;-68
2022/09/09 01:43:35;;;;;;;3.33;1.17;;;;;;;17.91;67.29;99114.53;345289;28;770;-68
2022/09/09 01:43:48;;;;;;;3.00;1.10;;;;;;;17.90;67.00;99116.28;344054;28;1951;-69
2022/09/09 01:44:01;;;;;;;2.95;1.02;;;;;;;17.91;66.92;99118.00;344950;28;1956;-68
2022/09/09 01:44:15;;;;;;;2.85;1.00;;;;;;;17.91;67.01;99123.25;345049;28;1095;-68
2022/09/09 01:44:29;;;;;;;2.90;1.00;;;;;;;17.91;67.09;99118.00;343578;28;1620;-68
2022/09/09 01:44:41;;;;;;;3.55;1.10;;;;;;;17.91;67.10;99118.00;343664;28;1006;-68
2022/09/09 01:44:55;;;;;;;3.28;1.33;;;;;;;17.91;67.01;99117.16;342231;28;1159;-68